Time;durP1;ratioP1;P1;durP2;ratioP2;P2;SDS_P1;SDS_P2;PMS_P1;PMS_P2;Temp;Humidity;BMP_temperature;BMP_pressure;BME280_temperature;BME280_humidity;BME280_pressure;Samples;Min_cycle;Max_cycle;Signal;HPM_P1;HPM_P2
2021/07/23 00:01:42;;;;;;;7.63;5.68;;;;;;;24.49;66.55;100234.00;5116097;28;20492;-76
2021/07/23 00:04:11;;;;;;;8.80;6.03;;;;;;;24.52;66.08;100230.25;5116166;28;20024;-78
2021/07/23 00:06:39;;;;;;;8.55;5.78;;;;;;;24.50;66.09;100232.75;5116129;27;20055;-77
2021/07/23 00:09:06;;;;;;;7.88;5.70;;;;;;;24.51;65.57;100233.56;5116683;28;20374;-78
2021/07/23 00:11:32;;;;;;;6.63;5.95;;;;;;;24.51;65.59;100222.97;5115993;28;20085;-75
2021/07/23 00:14:00;;;;;;;9.00;5.80;;;;;;;24.48;65.57;100221.03;5115677;28;20056;-78
2021/07/23 00:16:31;;;;;;;6.13;5.57;;;;;;;24.51;64.97;100225.81;5116518;28;20024;-75
2021/07/23 00:18:56;;;;;;;7.35;5.95;;;;;;;24.48;64.80;100223.88;5115217;28;20512;-76
2021/07/23 00:21:27;;;;;;;6.35;5.75;;;;;;;24.52;64.59;100229.44;5115126;28;20055;-74
2021/07/23 00:23:54;;;;;;;8.68;6.53;;;;;;;24.56;64.27;100215.91;5115729;28;20038;-75
2021/07/23 00:26:21;;;;;;;7.15;6.45;;;;;;;24.51;64.20;100217.28;5116300;28;20464;-76
2021/07/23 00:28:51;;;;;;;6.75;6.07;;;;;;;24.42;64.54;100208.66;5116632;28;20040;-77
2021/07/23 00:31:16;;;;;;;6.38;5.75;;;;;;;24.25;64.54;100193.75;5115965;28;20028;-75
2021/07/23 00:33:47;;;;;;;6.28;5.68;;;;;;;24.35;64.67;100208.06;5116054;27;20139;-75
2021/07/23 00:36:15;;;;;;;7.97;6.32;;;;;;;24.44;64.68;100206.13;5116889;28;20148;-78
2021/07/23 00:38:41;;;;;;;7.47;5.80;;;;;;;24.25;65.00;100187.25;5115492;28;20020;-77
2021/07/23 00:41:07;;;;;;;9.77;5.82;;;;;;;24.26;64.90;100194.53;5115456;28;20031;-78
2021/07/23 00:43:35;;;;;;;8.02;5.75;;;;;;;24.23;65.15;100198.28;5133075;27;20032;-77
2021/07/23 00:46:03;;;;;;;8.07;5.45;;;;;;;24.17;65.52;100191.59;5115302;28;20020;-76
2021/07/23 00:48:29;;;;;;;10.45;5.75;;;;;;;24.24;65.51;100197.06;5115268;28;20481;-78
2021/07/23 00:50:55;;;;;;;15.15;6.00;;;;;;;24.17;65.74;100192.38;5132650;27;20019;-78
2021/07/23 00:53:23;;;;;;;6.55;5.78;;;;;;;24.16;65.67;100195.69;5132648;27;20034;-76
2021/07/23 00:55:58;;;;;;;8.30;5.60;;;;;;;24.15;65.24;100199.78;5116201;28;20347;-77
2021/07/23 00:58:30;;;;;;;6.45;5.57;;;;;;;24.11;65.36;100194.19;5116485;27;20374;-76
2021/07/23 01:01:02;;;;;;;6.82;5.90;;;;;;;24.13;65.54;100193.75;5115356;28;20483;-78
2021/07/23 01:03:29;;;;;;;9.43;6.50;;;;;;;24.11;65.14;100182.03;5115142;28;20028;-78
2021/07/23 01:05:57;;;;;;;10.75;5.78;;;;;;;24.10;65.96;100191.81;5115002;28;20458;-76
2021/07/23 01:08:26;;;;;;;6.10;5.50;;;;;;;24.07;66.05;100193.50;5114929;28;20019;-76
2021/07/23 01:10:54;;;;;;;6.53;5.78;;;;;;;23.99;66.14;100186.50;5132014;27;20028;-76
2021/07/23 01:13:22;;;;;;;7.00;6.20;;;;;;;24.10;65.88;100186.13;5115408;28;20107;-76
2021/07/23 01:15:52;;;;;;;7.40;6.15;;;;;;;23.98;65.97;100173.53;5115915;28;20062;-78
2021/07/23 01:18:20;;;;;;;7.10;5.80;;;;;;;23.95;66.43;100174.44;5114734;28;20112;-76
2021/07/23 01:20:47;;;;;;;9.18;6.28;;;;;;;23.92;66.41;100181.84;5114999;28;20456;-76
2021/07/23 01:23:24;;;;;;;7.72;6.20;;;;;;;23.88;66.63;100181.16;5131774;27;20061;-76
2021/07/23 01:25:52;;;;;;;10.73;6.45;;;;;;;23.91;66.34;100177.38;5114890;27;20031;-75
2021/07/23 01:28:22;;;;;;;9.57;6.15;;;;;;;23.98;66.10;100176.38;5114534;28;20484;-75
2021/07/23 01:30:50;;;;;;;9.40;6.53;;;;;;;23.97;66.22;100169.06;5131602;27;20118;-79
2021/07/23 01:33:16;;;;;;;8.45;6.00;;;;;;;23.87;66.46;100168.19;5115734;27;20028;-75
2021/07/23 01:35:49;;;;;;;8.13;6.25;;;;;;;23.80;66.57;100157.03;5116131;28;20146;-75
2021/07/23 01:38:17;;;;;;;11.90;6.40;;;;;;;23.88;66.53;100160.47;5114260;28;20023;-78
2021/07/23 01:40:48;;;;;;;10.60;6.47;;;;;;;23.84;67.04;100169.09;5114564;28;20023;-76
2021/07/23 01:43:15;;;;;;;6.65;5.68;;;;;;;23.84;67.04;100159.78;5115524;28;20059;-78
2021/07/23 01:45:43;;;;;;;8.18;6.68;;;;;;;23.82;67.14;100165.91;5115451;28;20031;-78
2021/07/23 01:48:14;;;;;;;7.25;6.38;;;;;;;23.77;67.70;100157.97;5114143;28;20020;-76
2021/07/23 01:50:42;;;;;;;7.53;6.57;;;;;;;23.74;68.11;100156.03;5131145;27;20036;-76
2021/07/23 01:53:13;;;;;;;7.50;5.80;;;;;;;23.78;67.30;100168.06;5131673;27;20473;-74
2021/07/23 01:55:42;;;;;;;8.07;6.68;;;;;;;23.84;67.14;100163.41;5113988;28;20135;-75
2021/07/23 01:58:14;;;;;;;10.60;5.60;;;;;;;23.80;67.36;100157.03;5114389;28;20027;-75
2021/07/23 02:00:45;;;;;;;7.38;6.68;;;;;;;23.71;67.87;100159.78;5113807;28;20030;-78
2021/07/23 02:03:13;;;;;;;7.20;5.80;;;;;;;23.66;67.98;100157.50;5112739;28;20190;-77
2021/07/23 02:05:41;;;;;;;7.20;5.75;;;;;;;23.71;67.99;100159.78;5112127;28;20434;-74
2021/07/23 02:08:09;;;;;;;8.88;6.20;;;;;;;23.70;68.00;100158.16;5112139;28;20236;-77
2021/07/23 02:10:39;;;;;;;8.05;5.80;;;;;;;23.72;68.25;100164.22;5112207;28;20020;-77
2021/07/23 02:13:10;;;;;;;9.23;6.60;;;;;;;23.67;68.06;100153.41;5111460;28;20031;-78
2021/07/23 02:15:39;;;;;;;7.00;6.20;;;;;;;23.64;67.88;100162.81;5112428;28;20043;-79
2021/07/23 02:18:07;;;;;;;8.40;6.90;;;;;;;23.57;68.08;100157.34;5113289;28;20024;-75
2021/07/23 02:20:37;;;;;;;10.95;8.40;;;;;;;23.62;67.52;100145.44;5111489;28;20118;-77
2021/07/23 02:23:05;;;;;;;11.30;10.23;;;;;;;23.54;67.70;100150.50;5129036;27;20118;-75
2021/07/23 02:25:36;;;;;;;13.80;12.43;;;;;;;23.52;67.67;100145.28;5111672;28;20039;-77
2021/07/23 02:28:05;;;;;;;9.88;8.68;;;;;;;23.65;67.23;100150.22;5112305;28;20434;-75
2021/07/23 02:30:30;;;;;;;9.63;7.80;;;;;;;23.60;67.31;100147.94;5128767;27;20031;-75
2021/07/23 02:32:58;;;;;;;8.25;6.70;;;;;;;23.59;67.19;100143.47;5111795;28;20038;-75
2021/07/23 02:35:26;;;;;;;7.07;5.75;;;;;;;23.62;67.00;100151.91;5111561;28;20031;-78
2021/07/23 02:37:57;;;;;;;10.18;6.30;;;;;;;23.63;66.91;100145.00;5111193;28;20110;-75
2021/07/23 02:40:24;;;;;;;8.23;6.30;;;;;;;23.56;67.14;100142.34;5114169;28;20102;-78
2021/07/23 02:42:55;;;;;;;10.02;8.88;;;;;;;23.58;67.33;100139.84;5113040;28;20019;-75
2021/07/23 02:45:21;;;;;;;10.30;8.43;;;;;;;23.52;67.48;100138.81;5130392;27;20039;-75
2021/07/23 02:47:50;;;;;;;9.57;8.27;;;;;;;23.49;67.66;100134.88;5112918;28;20039;-75
2021/07/23 02:50:21;;;;;;;8.85;8.05;;;;;;;23.43;67.67;100139.50;5112900;28;20489;-75
2021/07/23 02:52:51;;;;;;;8.75;7.88;;;;;;;23.40;68.09;100134.72;5113918;28;20051;-77
2021/07/23 02:55:20;;;;;;;9.73;7.40;;;;;;;23.40;67.97;100134.72;5112912;28;20096;-79
2021/07/23 02:57:48;;;;;;;7.57;6.88;;;;;;;23.42;68.15;100142.78;5113416;28;20031;-77
2021/07/23 03:00:17;;;;;;;6.85;5.93;;;;;;;23.43;68.08;100136.66;5112746;28;20031;-76
2021/07/23 03:02:45;;;;;;;7.07;5.75;;;;;;;23.49;68.12;100134.06;5113408;28;20407;-75
2021/07/23 03:05:13;;;;;;;8.00;7.20;;;;;;;23.43;68.25;100142.31;5112780;28;20038;-75
2021/07/23 03:07:41;;;;;;;8.30;6.07;;;;;;;23.39;68.11;100133.16;5112769;28;20031;-75
2021/07/23 03:10:10;;;;;;;5.80;5.28;;;;;;;23.39;67.15;100144.50;5113000;28;20042;-77
2021/07/23 03:12:40;;;;;;;7.32;5.40;;;;;;;23.38;66.73;100145.72;5113287;28;20081;-75
2021/07/23 03:15:09;;;;;;;5.43;4.75;;;;;;;23.39;66.80;100130.31;5112484;28;20047;-74
2021/07/23 03:17:37;;;;;;;7.10;5.63;;;;;;;23.24;67.19;100112.13;5114170;28;20028;-76
2021/07/23 03:20:11;;;;;;;9.07;5.82;;;;;;;23.45;67.40;100137.00;5112631;28;20028;-76
2021/07/23 03:22:39;;;;;;;9.48;5.15;;;;;;;23.50;66.83;100144.97;5129275;28;20024;-75
2021/07/23 03:25:05;;;;;;;12.73;5.18;;;;;;;23.52;66.07;100147.34;5112809;28;20058;-75
2021/07/23 03:27:36;;;;;;;15.23;6.00;;;;;;;23.71;64.75;100143.53;5116257;28;20038;-76
2021/07/23 03:30:04;;;;;;;10.68;5.68;;;;;;;23.60;64.87;100142.25;5116769;28;20055;-77
2021/07/23 03:32:32;;;;;;;7.90;5.65;;;;;;;23.62;64.75;100136.91;5099826;28;20024;-76
2021/07/23 03:35:05;;;;;;;5.78;5.20;;;;;;;23.48;65.34;100153.13;5116936;28;20173;-78
2021/07/23 03:37:33;;;;;;;5.68;5.15;;;;;;;23.40;66.06;100143.25;5116635;28;20028;-77
2021/07/23 03:40:01;;;;;;;7.30;5.47;;;;;;;23.40;66.20;100151.75;5116464;28;20030;-76
2021/07/23 03:42:34;;;;;;;7.10;5.60;;;;;;;23.36;66.29;100142.56;5116840;28;20032;-75
2021/07/23 03:45:02;;;;;;;;;;;;;;;23.39;66.85;100150.19;5117128;28;20035;-76
2021/07/23 03:47:30;;;;;;;4.70;4.30;;;;;;;23.37;66.86;100149.81;5116423;28;19907;-78
2021/07/23 03:49:58;;;;;;;7.00;6.13;;;;;;;23.39;67.10;100149.38;5116431;27;20023;-76
2021/07/23 03:52:27;;;;;;;6.10;5.55;;;;;;;23.36;67.07;100150.28;5116436;28;20035;-76
2021/07/23 03:54:55;;;;;;;7.93;4.75;;;;;;;23.36;67.60;100151.06;5116324;28;20069;-78
2021/07/23 03:57:22;;;;;;;7.38;6.47;;;;;;;23.36;67.83;100151.06;5116220;28;20036;-75
2021/07/23 03:59:53;;;;;;;7.10;6.38;;;;;;;23.35;68.53;100155.16;5133260;27;20020;-77
2021/07/23 04:02:23;;;;;;;8.07;6.40;;;;;;;23.38;68.77;100154.25;5116169;28;20038;-75
2021/07/23 04:04:51;;;;;;;8.43;7.30;;;;;;;23.49;68.90;100151.91;5133256;27;20023;-75
2021/07/23 04:07:20;;;;;;;10.60;6.25;;;;;;;23.47;68.88;100151.53;5116119;28;20031;-75
2021/07/23 04:09:51;;;;;;;8.80;7.90;;;;;;;23.45;69.16;100156.88;5116057;28;20122;-75
2021/07/23 04:12:21;;;;;;;8.30;7.13;;;;;;;23.47;69.06;100157.22;5115838;28;20065;-76
2021/07/23 04:14:49;;;;;;;9.50;7.75;;;;;;;23.47;69.73;100157.22;5115560;28;20040;-75
2021/07/23 04:17:20;;;;;;;18.55;9.63;;;;;;;23.68;69.56;100149.31;5116431;28;20351;-78
2021/07/23 04:19:48;;;;;;;12.68;11.32;;;;;;;23.87;69.53;100156.03;5115735;28;20084;-77
2021/07/23 04:22:19;;;;;;;12.10;10.88;;;;;;;24.05;68.91;100157.03;5116329;28;20473;-77
2021/07/23 04:24:51;;;;;;;9.65;8.70;;;;;;;24.22;68.62;100160.53;5115711;28;20122;-75
2021/07/23 04:27:18;;;;;;;11.95;9.73;;;;;;;24.47;66.89;100158.94;5116914;28;20059;-74
2021/07/23 04:29:49;;;;;;;14.15;10.27;;;;;;;24.69;65.79;100154.06;5115568;28;20031;-77
2021/07/23 04:32:17;;;;;;;15.15;8.52;;;;;;;24.93;64.63;100168.69;5115471;28;20024;-74
2021/07/23 04:34:46;;;;;;;8.32;7.47;;;;;;;25.15;62.90;100162.22;5116418;27;20390;-75
2021/07/23 04:37:13;;;;;;;8.55;7.28;;;;;;;25.43;61.70;100175.38;5116118;28;20024;-76
2021/07/23 04:39:41;;;;;;;9.63;7.43;;;;;;;25.57;60.67;100177.69;5132881;27;20027;-76
2021/07/23 04:42:14;;;;;;;11.85;7.95;;;;;;;25.89;59.06;100166.28;5115461;28;20039;-75
2021/07/23 04:44:45;;;;;;;7.93;7.07;;;;;;;26.23;58.98;100171.78;5115436;28;20044;-78
2021/07/23 04:47:15;;;;;;;11.48;8.45;;;;;;;26.56;58.35;100171.25;5132836;27;20019;-77
2021/07/23 04:49:46;;;;;;;9.32;6.72;;;;;;;26.86;57.74;100173.19;5116278;28;20023;-74
2021/07/23 04:52:16;;;;;;;11.55;8.18;;;;;;;27.10;56.35;100170.47;5115259;28;20024;-78
2021/07/23 04:54:42;;;;;;;9.77;7.93;;;;;;;27.15;55.87;100169.84;5115455;28;20042;-77
2021/07/23 04:57:17;;;;;;;10.07;7.43;;;;;;;27.50;54.79;100172.34;5115372;28;20027;-75
2021/07/23 04:59:51;;;;;;;10.02;7.30;;;;;;;27.62;54.19;100170.56;5115784;28;20032;-76
2021/07/23 05:02:19;;;;;;;9.32;7.70;;;;;;;27.67;53.90;100178.47;5115415;28;20027;-75
2021/07/23 05:04:45;;;;;;;8.95;7.05;;;;;;;28.16;52.72;100178.13;5115210;28;20027;-76
2021/07/23 05:07:11;;;;;;;11.85;7.68;;;;;;;28.48;51.65;100187.19;5115031;28;20023;-75
2021/07/23 05:09:42;;;;;;;10.82;7.15;;;;;;;28.66;51.06;100184.22;5132050;27;20131;-77
2021/07/23 05:12:10;;;;;;;13.05;7.55;;;;;;;28.90;50.78;100186.25;5114786;28;20471;-74
2021/07/23 05:14:36;;;;;;;10.30;8.18;;;;;;;28.57;50.95;100178.56;5114566;28;20077;-75
2021/07/23 05:17:04;;;;;;;11.63;7.95;;;;;;;29.13;49.47;100188.31;5115061;28;20031;-76
2021/07/23 05:19:30;;;;;;;11.90;8.02;;;;;;;28.93;50.39;100191.03;5114594;28;20508;-77
2021/07/23 05:21:56;;;;;;;9.25;7.85;;;;;;;28.78;50.94;100190.19;5131711;27;20028;-77
2021/07/23 05:24:26;;;;;;;14.70;8.38;;;;;;;28.44;52.13;100189.44;5115036;28;20031;-75
2021/07/23 05:26:58;;;;;;;11.55;8.05;;;;;;;28.41;52.18;100185.50;5114467;28;20028;-75
2021/07/23 05:29:29;;;;;;;11.10;9.75;;;;;;;28.23;53.40;100201.94;5114468;28;20024;-75
2021/07/23 05:32:00;;;;;;;11.40;10.02;;;;;;;28.69;52.19;100197.53;5114414;28;20469;-78
2021/07/23 05:34:26;;;;;;;10.35;9.27;;;;;;;28.97;51.55;100201.00;5114386;28;20031;-77
2021/07/23 05:36:55;;;;;;;11.85;9.95;;;;;;;28.84;53.07;100183.28;5114261;28;20085;-77
2021/07/23 05:39:24;;;;;;;11.52;8.63;;;;;;;29.27;51.92;100203.16;5115574;28;20028;-75
2021/07/23 05:41:51;;;;;;;12.52;9.48;;;;;;;29.52;50.98;100208.31;5114409;28;20027;-75
2021/07/23 05:44:17;;;;;;;10.77;9.25;;;;;;;29.89;50.18;100210.81;5115571;28;20032;-77
2021/07/23 05:46:48;;;;;;;12.00;9.57;;;;;;;29.90;50.08;100209.50;5131196;27;20022;-76
2021/07/23 05:49:18;;;;;;;8.90;8.00;;;;;;;30.51;48.50;100206.81;5113533;27;20423;-76
2021/07/23 05:51:46;;;;;;;14.43;8.70;;;;;;;30.57;47.93;100204.00;5114232;28;20046;-75
2021/07/23 05:54:20;;;;;;;9.93;8.93;;;;;;;30.92;47.21;100204.75;5114474;28;20459;-77
2021/07/23 05:56:51;;;;;;;15.43;11.02;;;;;;;30.60;48.16;100208.75;5114956;28;20023;-77
2021/07/23 05:59:19;;;;;;;12.60;9.95;;;;;;;30.05;49.59;100210.28;5114509;28;20032;-77
2021/07/23 06:01:48;;;;;;;12.60;10.02;;;;;;;30.18;50.38;100204.25;5130467;27;20031;-77
2021/07/23 06:04:15;;;;;;;16.77;10.27;;;;;;;30.60;48.99;100205.88;5114900;28;20031;-77
2021/07/23 06:06:46;;;;;;;16.65;10.70;;;;;;;30.31;49.59;100209.63;5113783;28;20028;-75
2021/07/23 06:09:13;;;;;;;14.18;10.85;;;;;;;29.72;50.45;100217.06;5113583;28;20035;-78
2021/07/23 06:11:41;;;;;;;15.05;10.70;;;;;;;30.00;50.12;100196.66;5113487;28;20024;-75
2021/07/23 06:14:07;;;;;;;13.70;12.30;;;;;;;30.08;49.71;100217.88;5113202;28;20082;-76
2021/07/23 06:16:38;;;;;;;14.15;9.20;;;;;;;30.31;49.30;100224.81;5113408;28;20077;-77
2021/07/23 06:19:05;;;;;;;12.23;9.85;;;;;;;30.16;49.74;100221.97;5114636;28;20024;-76
2021/07/23 06:21:34;;;;;;;13.48;10.18;;;;;;;30.19;49.95;100223.03;5130656;27;20474;-77
2021/07/23 06:24:02;;;;;;;13.75;8.52;;;;;;;30.43;48.70;100220.81;5113342;28;20027;-76
2021/07/23 06:26:31;;;;;;;12.13;8.20;;;;;;;31.03;47.47;100229.97;5113855;28;20062;-75
2021/07/23 06:28:56;;;;;;;10.75;7.63;;;;;;;30.69;47.17;100231.59;5114821;27;20063;-77
2021/07/23 06:31:24;;;;;;;12.45;9.00;;;;;;;30.62;48.15;100220.53;5113247;28;20051;-75
2021/07/23 06:33:53;;;;;;;8.13;7.32;;;;;;;30.69;47.76;100235.28;5113148;28;20035;-76
2021/07/23 06:36:24;;;;;;;10.95;7.07;;;;;;;30.61;46.96;100234.09;5113059;28;20114;-77
2021/07/23 06:38:52;;;;;;;10.18;7.65;;;;;;;29.84;50.15;100234.44;5114294;28;20027;-76
2021/07/23 06:41:18;;;;;;;9.25;8.30;;;;;;;30.15;49.38;100231.88;5112850;28;20024;-76
2021/07/23 06:43:45;;;;;;;12.15;8.60;;;;;;;30.29;49.18;100240.94;5112911;28;20039;-77
2021/07/23 06:46:16;;;;;;;13.00;8.45;;;;;;;29.67;50.80;100237.81;5113174;28;20485;-75
2021/07/23 06:48:44;;;;;;;9.25;7.10;;;;;;;29.94;50.16;100238.78;5114239;28;20028;-76
2021/07/23 06:51:14;;;;;;;10.25;7.97;;;;;;;30.15;49.40;100240.47;5112892;28;20039;-75
2021/07/23 06:53:43;;;;;;;10.65;6.70;;;;;;;30.41;49.23;100239.78;5113653;28;20104;-77
2021/07/23 06:56:14;;;;;;;10.93;6.90;;;;;;;31.37;46.72;100241.88;5112337;28;20027;-76
2021/07/23 06:58:45;;;;;;;13.87;8.27;;;;;;;31.09;47.54;100239.44;5111864;28;20035;-76
2021/07/23 07:01:12;;;;;;;15.45;7.75;;;;;;;31.25;47.11;100235.19;5114299;28;20031;-78
2021/07/23 07:03:42;;;;;;;11.57;7.40;;;;;;;31.49;46.31;100241.50;5129916;27;20043;-79
2021/07/23 07:06:13;;;;;;;8.55;7.00;;;;;;;32.19;45.16;100248.94;5113312;28;20034;-78
2021/07/23 07:08:44;;;;;;;13.25;7.78;;;;;;;31.87;45.19;100256.78;5130323;27;20031;-78
2021/07/23 07:11:10;;;;;;;11.82;8.45;;;;;;;32.12;45.22;100243.66;5114164;28;20028;-77
2021/07/23 07:13:43;;;;;;;9.70;8.00;;;;;;;33.06;43.08;100250.53;5112423;28;20026;-78
2021/07/23 07:16:11;;;;;;;10.73;8.73;;;;;;;32.72;43.75;100238.06;5113888;28;20027;-77
2021/07/23 07:18:41;;;;;;;10.30;8.05;;;;;;;32.88;43.04;100236.56;5112542;28;20035;-77
2021/07/23 07:21:13;;;;;;;9.77;8.70;;;;;;;32.58;44.18;100240.59;5112569;28;20038;-77
2021/07/23 07:23:42;;;;;;;10.82;8.95;;;;;;;32.46;44.23;100241.03;5112446;28;20028;-76
2021/07/23 07:26:13;;;;;;;11.35;9.80;;;;;;;32.06;45.11;100234.19;5114035;28;20028;-77
2021/07/23 07:28:42;;;;;;;10.25;9.18;;;;;;;32.42;44.19;100237.59;5129646;28;20067;-76
2021/07/23 07:31:10;;;;;;;13.25;10.15;;;;;;;32.19;44.61;100242.41;5129475;28;20023;-79
2021/07/23 07:33:38;;;;;;;12.35;8.85;;;;;;;32.65;44.09;100241.41;5112313;28;20035;-75
2021/07/23 07:36:08;;;;;;;11.43;9.32;;;;;;;32.65;43.72;100236.44;5130225;28;20497;-77
2021/07/23 07:38:36;;;;;;;10.95;9.63;;;;;;;32.77;43.67;100235.19;5112583;28;20160;-77
2021/07/23 07:41:05;;;;;;;13.90;9.88;;;;;;;33.60;41.67;100215.84;5112691;28;20062;-78
2021/07/23 07:43:36;;;;;;;14.13;8.25;;;;;;;34.52;40.01;100239.22;5113504;28;20078;-76
2021/07/23 07:46:04;;;;;;;13.15;8.27;;;;;;;34.84;39.43;100242.53;5112436;28;20019;-77
2021/07/23 07:48:33;;;;;;;11.80;7.60;;;;;;;34.68;39.36;100244.16;5113377;28;20036;-75
2021/07/23 07:50:58;;;;;;;11.38;7.70;;;;;;;35.49;37.97;100232.53;5112349;28;20085;-75
2021/07/23 07:53:26;;;;;;;13.35;8.98;;;;;;;34.78;39.57;100241.75;5112241;28;20023;-77
2021/07/23 07:55:57;;;;;;;12.23;8.02;;;;;;;34.49;39.93;100232.38;5129672;28;20053;-77
2021/07/23 07:58:22;;;;;;;13.73;8.52;;;;;;;34.69;39.49;100231.28;5112037;28;20118;-78
2021/07/23 08:00:53;;;;;;;9.25;7.25;;;;;;;34.70;39.70;100232.06;5114033;28;20102;-75
2021/07/23 08:03:21;;;;;;;12.23;7.45;;;;;;;34.86;38.70;100234.88;5112521;28;20036;-78
2021/07/23 08:05:53;;;;;;;10.45;7.30;;;;;;;35.81;36.83;100227.81;5112099;28;20110;-76
2021/07/23 08:08:21;;;;;;;10.45;7.72;;;;;;;34.92;38.98;100238.53;5113800;28;20066;-76
2021/07/23 08:10:49;;;;;;;9.60;7.95;;;;;;;34.53;38.53;100223.44;5129269;28;20024;-77
2021/07/23 08:13:20;;;;;;;8.38;7.50;;;;;;;33.99;40.30;100218.00;5115184;28;20070;-76
2021/07/23 08:15:49;;;;;;;8.80;7.22;;;;;;;34.44;39.24;100215.84;5116975;28;20058;-77
2021/07/23 08:18:16;;;;;;;8.43;6.35;;;;;;;34.90;38.41;100223.84;5117340;28;20059;-75
2021/07/23 08:20:46;;;;;;;11.48;7.03;;;;;;;35.66;37.37;100221.63;5115413;27;20027;-77
2021/07/23 08:23:12;;;;;;;7.70;6.03;;;;;;;35.84;36.63;100223.06;5117949;28;20462;-77
2021/07/23 08:25:38;;;;;;;9.10;6.15;;;;;;;35.89;36.22;100208.53;5116002;27;20081;-77
2021/07/23 08:28:04;;;;;;;7.65;5.95;;;;;;;35.09;37.33;100217.47;5115767;28;20497;-77
2021/07/23 08:30:30;;;;;;;8.57;6.15;;;;;;;34.81;38.26;100221.25;5115635;28;20044;-77
2021/07/23 08:33:00;;;;;;;14.90;6.57;;;;;;;35.61;37.01;100219.56;5115559;28;20101;-76
2021/07/23 08:35:25;;;;;;;10.18;6.05;;;;;;;35.10;38.62;100214.06;5115800;28;20391;-76
2021/07/23 08:37:51;;;;;;;8.60;6.00;;;;;;;34.72;38.91;100218.66;5115441;27;20023;-78
2021/07/23 08:40:22;;;;;;;9.95;6.60;;;;;;;34.55;39.57;100221.59;5115333;28;20035;-75
2021/07/23 08:42:51;;;;;;;6.85;5.50;;;;;;;34.70;39.07;100221.28;5115383;28;20038;-77
2021/07/23 08:45:22;;;;;;;9.55;5.13;;;;;;;35.58;37.89;100214.81;5117229;28;20031;-77
2021/07/23 08:47:48;;;;;;;8.20;6.20;;;;;;;36.15;36.70;100219.63;5115259;28;20118;-76
2021/07/23 08:50:18;;;;;;;7.28;5.38;;;;;;;36.14;36.68;100223.09;5116377;28;20066;-78
2021/07/23 08:52:54;;;;;;;5.43;4.88;;;;;;;36.57;36.09;100223.19;5115078;28;20024;-78
2021/07/23 08:55:26;;;;;;;13.00;5.35;;;;;;;36.11;36.44;100213.34;5116038;28;20036;-78
2021/07/23 08:57:54;;;;;;;5.13;4.63;;;;;;;35.03;38.03;100214.59;5115808;28;20400;-77
2021/07/23 09:00:21;;;;;;;5.97;4.63;;;;;;;35.55;37.30;100213.81;5114928;28;20023;-75
2021/07/23 09:03:07;;;;;;;5.38;4.53;;;;;;;35.59;37.05;100219.31;5116417;28;20508;-76
2021/07/23 09:05:41;;;;;;;6.22;5.63;;;;;;;35.42;37.04;100217.28;5116323;28;20035;-76
2021/07/23 09:08:20;;;;;;;5.10;4.65;;;;;;;35.79;36.33;100212.31;5114834;28;20035;-77
2021/07/23 09:11:04;;;;;;;7.55;5.47;;;;;;;35.32;37.20;100212.38;5131954;27;20031;-77
2021/07/23 09:13:30;;;;;;;6.57;4.47;;;;;;;36.58;34.93;100206.59;5116001;27;20099;-78
2021/07/23 09:15:58;;;;;;;8.98;5.43;;;;;;;37.09;33.50;100212.56;5114332;28;20075;-77
2021/07/23 09:18:33;;;;;;;6.05;5.07;;;;;;;36.35;35.13;100203.13;5114545;28;20032;-77
2021/07/23 09:21:09;;;;;;;6.43;4.90;;;;;;;34.88;37.12;100214.91;5114755;28;20032;-77
2021/07/23 09:23:39;;;;;;;6.53;4.82;;;;;;;35.00;36.90;100209.13;5114838;28;20078;-77
2021/07/23 09:26:10;;;;;;;5.75;5.18;;;;;;;35.13;36.98;100189.84;5132245;27;20165;-77
2021/07/23 09:28:44;;;;;;;5.55;5.03;;;;;;;34.69;38.39;100205.28;5114559;28;20031;-78
2021/07/23 09:31:23;;;;;;;6.78;5.43;;;;;;;35.43;36.00;100201.50;5115645;28;20482;-79
2021/07/23 09:33:53;;;;;;;6.00;4.53;;;;;;;35.75;35.78;100192.34;5115078;28;20028;-75
2021/07/23 09:36:19;;;;;;;5.40;4.55;;;;;;;36.01;35.42;100196.88;5114878;28;20122;-78
2021/07/23 09:38:49;;;;;;;4.70;4.10;;;;;;;35.67;35.39;100202.94;5114193;28;20563;-76
2021/07/23 09:41:20;;;;;;;6.25;4.15;;;;;;;35.80;34.32;100187.84;5131274;27;20038;-77
2021/07/23 09:44:00;;;;;;;7.47;4.38;;;;;;;35.18;33.49;100202.72;5114130;28;20020;-77
2021/07/23 09:46:34;;;;;;;6.45;3.95;;;;;;;34.46;35.86;100206.66;5113472;28;20461;-78
2021/07/23 09:49:24;;;;;;;5.72;4.20;;;;;;;35.74;34.29;100193.66;5115310;28;20030;-78
2021/07/23 09:51:51;;;;;;;5.82;4.35;;;;;;;36.24;32.86;100198.25;5113930;28;20036;-78
2021/07/23 09:54:18;;;;;;;6.78;4.35;;;;;;;36.52;32.70;100194.28;5113971;28;20034;-75
2021/07/23 09:56:45;;;;;;;4.38;4.03;;;;;;;36.75;32.22;100195.56;5115772;28;20080;-78
2021/07/23 09:59:54;;;;;;;4.07;3.67;;;;;;;36.69;31.28;100180.38;5114039;28;20040;-78
2021/07/23 10:02:27;;;;;;;4.07;3.72;;;;;;;37.25;30.73;100188.34;5111472;28;20039;-75
2021/07/23 10:05:04;;;;;;;4.43;3.83;;;;;;;37.61;30.39;100183.06;5115066;28;20024;-75
2021/07/23 10:07:40;;;;;;;5.82;4.32;;;;;;;36.72;32.53;100185.09;5113644;28;20031;-75
2021/07/23 10:10:11;;;;;;;5.07;3.80;;;;;;;37.27;31.66;100179.88;5131068;27;20138;-75
2021/07/23 10:12:38;;;;;;;4.32;3.92;;;;;;;35.99;32.57;100173.47;5130080;27;20028;-76
2021/07/23 10:15:07;;;;;;;13.68;4.03;;;;;;;36.16;32.76;100174.09;5130318;27;20052;-77
2021/07/23 10:17:36;;;;;;;7.35;4.32;;;;;;;36.34;32.38;100173.38;5107754;28;20130;-76
2021/07/23 10:20:03;;;;;;;3.97;3.60;;;;;;;36.43;32.19;100178.81;5113374;28;20024;-77
2021/07/23 10:22:31;;;;;;;4.45;3.33;;;;;;;35.58;33.67;100180.09;5130444;27;20031;-76
2021/07/23 10:25:00;;;;;;;4.22;3.92;;;;;;;36.28;32.78;100175.56;5130095;27;20050;-77
2021/07/23 10:27:25;;;;;;;5.75;3.90;;;;;;;36.01;32.52;100173.72;5130595;27;20024;-76
2021/07/23 10:29:53;;;;;;;4.63;4.22;;;;;;;36.24;31.42;100157.69;5130765;27;20072;-78
2021/07/23 10:32:27;;;;;;;6.72;4.25;;;;;;;35.66;33.90;100178.22;5096490;28;20032;-78
2021/07/23 10:35:01;;;;;;;6.30;4.50;;;;;;;35.37;34.33;100177.63;5112841;28;20058;-76
2021/07/23 10:37:32;;;;;;;6.00;4.38;;;;;;;35.29;35.04;100181.63;5113759;28;20196;-77
2021/07/23 10:40:09;;;;;;;4.75;4.03;;;;;;;34.27;36.50;100175.44;5113121;28;20035;-77
2021/07/23 10:42:41;;;;;;;5.38;4.30;;;;;;;34.91;34.73;100173.38;5113123;28;20031;-75
2021/07/23 10:45:14;;;;;;;5.35;3.92;;;;;;;35.12;34.30;100181.72;5113141;28;20031;-76
2021/07/23 10:47:44;;;;;;;4.45;3.72;;;;;;;35.86;32.76;100180.69;5113105;28;20020;-77
2021/07/23 10:50:28;;;;;;;4.35;3.95;;;;;;;35.47;33.37;100178.09;5113283;28;20026;-76
2021/07/23 10:52:54;;;;;;;4.95;3.40;;;;;;;35.84;31.64;100171.72;5113026;28;20030;-76
2021/07/23 10:55:29;;;;;;;4.82;3.65;;;;;;;35.14;31.26;100158.84;5113544;28;20031;-74
2021/07/23 10:58:11;;;;;;;4.60;3.63;;;;;;;35.90;31.55;100172.50;5130095;27;20061;-78
2021/07/23 11:00:55;;;;;;;5.88;4.50;;;;;;;36.22;32.01;100171.91;5115058;28;20351;-78
2021/07/23 11:03:42;;;;;;;4.82;3.55;;;;;;;36.12;32.35;100167.84;5112857;28;20031;-77
2021/07/23 11:06:25;;;;;;;6.45;5.10;;;;;;;35.85;32.84;100158.84;5112834;28;20035;-75
2021/07/23 11:09:07;;;;;;;4.45;3.65;;;;;;;36.47;32.85;100158.25;5113760;28;20035;-76
2021/07/23 11:11:35;;;;;;;4.28;3.50;;;;;;;35.71;34.05;100151.34;5129873;27;20034;-76
2021/07/23 11:14:18;;;;;;;8.73;4.20;;;;;;;36.08;32.95;100152.88;5113162;28;20473;-75
2021/07/23 11:16:48;;;;;;;;;;;;;;;35.74;33.99;100147.34;5114400;28;20431;-76
2021/07/23 11:19:20;;;;;;;6.53;4.65;;;;;;;34.23;36.09;100148.94;5112537;28;19938;-76
2021/07/23 11:21:50;;;;;;;6.67;3.83;;;;;;;34.70;35.86;100143.28;5112603;28;20092;-75
2021/07/23 11:24:19;;;;;;;5.38;3.97;;;;;;;33.99;37.85;100143.75;5112541;28;20265;-75
2021/07/23 11:27:02;;;;;;;7.40;4.43;;;;;;;33.87;38.18;100139.25;5112804;28;20023;-78
2021/07/23 11:29:40;;;;;;;4.68;4.00;;;;;;;34.52;37.08;100141.00;5112472;28;20056;-78
2021/07/23 11:32:11;;;;;;;7.10;4.25;;;;;;;35.14;35.72;100135.69;5112473;28;20030;-78
2021/07/23 11:34:44;;;;;;;5.55;4.18;;;;;;;34.79;35.86;100136.41;5114007;28;20106;-76